sensor_id;sensor_type;location;lat;lon;timestamp;temperature;humidity
20680;DHT22;10499;47.494;7.608;2023-03-05T00:00:36;3.80;90.00
20680;DHT22;10499;47.494;7.608;2023-03-05T00:03:01;3.90;89.80
20680;DHT22;10499;47.494;7.608;2023-03-05T00:05:27;3.80;90.20
20680;DHT22;10499;47.494;7.608;2023-03-05T00:07:52;3.90;90.30
20680;DHT22;10499;47.494;7.608;2023-03-05T00:10:18;3.90;90.40
20680;DHT22;10499;47.494;7.608;2023-03-05T00:12:44;3.80;90.30
20680;DHT22;10499;47.494;7.608;2023-03-05T00:15:09;3.80;91.00
20680;DHT22;10499;47.494;7.608;2023-03-05T00:17:35;3.70;91.50
20680;DHT22;10499;47.494;7.608;2023-03-05T00:20:01;3.70;91.90
20680;DHT22;10499;47.494;7.608;2023-03-05T00:22:27;3.60;92.50
20680;DHT22;10499;47.494;7.608;2023-03-05T00:24:52;3.50;93.00
20680;DHT22;10499;47.494;7.608;2023-03-05T00:27:18;3.40;93.80
20680;DHT22;10499;47.494;7.608;2023-03-05T00:29:43;3.30;95.00
20680;DHT22;10499;47.494;7.608;2023-03-05T00:32:09;3.20;96.50
20680;DHT22;10499;47.494;7.608;2023-03-05T00:34:35;3.10;96.80
20680;DHT22;10499;47.494;7.608;2023-03-05T00:37:01;3.00;97.90
20680;DHT22;10499;47.494;7.608;2023-03-05T00:39:27;2.90;98.20
20680;DHT22;10499;47.494;7.608;2023-03-05T00:41:53;2.90;99.90
20680;DHT22;10499;47.494;7.608;2023-03-05T00:44:19;2.80;99.90
20680;DHT22;10499;47.494;7.608;2023-03-05T00:46:45;2.80;99.90
20680;DHT22;10499;47.494;7.608;2023-03-05T00:49:11;2.70;99.90
20680;DHT22;10499;47.494;7.608;2023-03-05T00:51:37;2.70;99.90
20680;DHT22;10499;47.494;7.608;2023-03-05T00:54:03;2.50;99.90
20680;DHT22;10499;47.494;7.608;2023-03-05T00:56:29;2.40;99.90
20680;DHT22;10499;47.494;7.608;2023-03-05T00:58:56;2.30;99.90
20680;DHT22;10499;47.494;7.608;2023-03-05T01:01:22;2.30;99.90
20680;DHT22;10499;47.494;7.608;2023-03-05T01:03:48;2.30;99.90
20680;DHT22;10499;47.494;7.608;2023-03-05T01:06:14;2.20;99.90
20680;DHT22;10499;47.494;7.608;2023-03-05T01:08:41;2.20;99.90
20680;DHT22;10499;47.494;7.608;2023-03-05T01:11:08;2.10;99.90
20680;DHT22;10499;47.494;7.608;2023-03-05T01:13:34;2.20;99.90
20680;DHT22;10499;47.494;7.608;2023-03-05T01:16:00;2.10;99.90
20680;DHT22;10499;47.494;7.608;2023-03-05T01:18:25;2.10;99.90
20680;DHT22;10499;47.494;7.608;2023-03-05T01:20:51;2.00;99.90
20680;DHT22;10499;47.494;7.608;2023-03-05T01:23:17;2.00;99.90
20680;DHT22;10499;47.494;7.608;2023-03-05T01:25:43;1.90;99.90
20680;DHT22;10499;47.494;7.608;2023-03-05T01:28:09;2.00;99.90
20680;DHT22;10499;47.494;7.608;2023-03-05T01:30:34;1.80;99.90
20680;DHT22;10499;47.494;7.608;2023-03-05T01:33:00;1.70;99.90
20680;DHT22;10499;47.494;7.608;2023-03-05T01:35:27;1.90;99.90
20680;DHT22;10499;47.494;7.608;2023-03-05T01:37:53;1.80;99.90
20680;DHT22;10499;47.494;7.608;2023-03-05T01:40:29;1.60;99.90
20680;DHT22;10499;47.494;7.608;2023-03-05T01:43:18;1.60;99.90
20680;DHT22;10499;47.494;7.608;2023-03-05T01:51:22;1.40;99.90
20680;DHT22;10499;47.494;7.608;2023-03-05T01:53:49;1.30;99.90
20680;DHT22;10499;47.494;7.608;2023-03-05T01:56:15;1.30;99.90
20680;DHT22;10499;47.494;7.608;2023-03-05T01:58:42;1.30;99.90
20680;DHT22;10499;47.494;7.608;2023-03-05T02:01:08;1.20;99.90
20680;DHT22;10499;47.494;7.608;2023-03-05T02:03:35;1.10;99.90
20680;DHT22;10499;47.494;7.608;2023-03-05T02:06:01;1.20;99.90
20680;DHT22;10499;47.494;7.608;2023-03-05T02:08:27;1.00;99.90
20680;DHT22;10499;47.494;7.608;2023-03-05T02:10:55;0.90;99.90
20680;DHT22;10499;47.494;7.608;2023-03-05T02:13:27;1.00;99.90
20680;DHT22;10499;47.494;7.608;2023-03-05T02:15:55;1.00;99.90
20680;DHT22;10499;47.494;7.608;2023-03-05T02:18:23;0.90;99.90
20680;DHT22;10499;47.494;7.608;2023-03-05T02:23:26;1.20;99.90
20680;DHT22;10499;47.494;7.608;2023-03-05T02:25:53;1.20;99.90
20680;DHT22;10499;47.494;7.608;2023-03-05T02:28:42;1.10;99.90
20680;DHT22;10499;47.494;7.608;2023-03-05T02:31:15;1.10;99.90
20680;DHT22;10499;47.494;7.608;2023-03-05T02:33:41;0.90;99.90
20680;DHT22;10499;47.494;7.608;2023-03-05T02:36:07;0.90;99.90
20680;DHT22;10499;47.494;7.608;2023-03-05T02:40:59;0.80;99.90
20680;DHT22;10499;47.494;7.608;2023-03-05T02:43:25;0.80;99.90
20680;DHT22;10499;47.494;7.608;2023-03-05T02:45:50;0.80;99.90
20680;DHT22;10499;47.494;7.608;2023-03-05T02:48:17;0.70;99.90
20680;DHT22;10499;47.494;7.608;2023-03-05T02:50:43;0.70;99.90
20680;DHT22;10499;47.494;7.608;2023-03-05T02:53:09;0.70;99.90
20680;DHT22;10499;47.494;7.608;2023-03-05T02:55:35;0.70;99.90
20680;DHT22;10499;47.494;7.608;2023-03-05T02:58:01;0.70;99.90
20680;DHT22;10499;47.494;7.608;2023-03-05T03:00:26;0.70;99.90
20680;DHT22;10499;47.494;7.608;2023-03-05T03:02:52;0.70;99.90
20680;DHT22;10499;47.494;7.608;2023-03-05T03:05:18;0.70;99.90
20680;DHT22;10499;47.494;7.608;2023-03-05T03:07:43;0.70;99.90
20680;DHT22;10499;47.494;7.608;2023-03-05T03:10:10;0.70;99.90
20680;DHT22;10499;47.494;7.608;2023-03-05T03:12:40;0.80;99.90
20680;DHT22;10499;47.494;7.608;2023-03-05T03:17:34;1.00;99.90
20680;DHT22;10499;47.494;7.608;2023-03-05T03:20:01;1.10;99.90
20680;DHT22;10499;47.494;7.608;2023-03-05T03:22:27;1.20;99.90
20680;DHT22;10499;47.494;7.608;2023-03-05T03:24:53;1.30;99.90
20680;DHT22;10499;47.494;7.608;2023-03-05T03:27:19;1.40;99.90
20680;DHT22;10499;47.494;7.608;2023-03-05T03:29:44;1.40;99.90
20680;DHT22;10499;47.494;7.608;2023-03-05T03:32:10;1.40;99.90
20680;DHT22;10499;47.494;7.608;2023-03-05T03:34:36;1.40;99.90
20680;DHT22;10499;47.494;7.608;2023-03-05T03:37:01;1.40;99.90
20680;DHT22;10499;47.494;7.608;2023-03-05T03:39:27;1.50;99.90
20680;DHT22;10499;47.494;7.608;2023-03-05T03:41:53;1.60;99.90
20680;DHT22;10499;47.494;7.608;2023-03-05T03:44:20;1.70;99.90
20680;DHT22;10499;47.494;7.608;2023-03-05T03:46:47;1.80;99.90
20680;DHT22;10499;47.494;7.608;2023-03-05T03:49:18;1.80;99.90
20680;DHT22;10499;47.494;7.608;2023-03-05T03:51:45;1.80;99.90
20680;DHT22;10499;47.494;7.608;2023-03-05T03:54:12;1.80;99.90
20680;DHT22;10499;47.494;7.608;2023-03-05T03:56:37;1.90;99.90
20680;DHT22;10499;47.494;7.608;2023-03-05T03:59:03;1.90;99.90
20680;DHT22;10499;47.494;7.608;2023-03-05T04:01:29;2.00;99.90
20680;DHT22;10499;47.494;7.608;2023-03-05T04:03:54;2.00;99.90
20680;DHT22;10499;47.494;7.608;2023-03-05T04:06:20;2.00;99.90
20680;DHT22;10499;47.494;7.608;2023-03-05T04:08:46;2.00;99.90
20680;DHT22;10499;47.494;7.608;2023-03-05T04:11:11;2.00;99.90
20680;DHT22;10499;47.494;7.608;2023-03-05T04:13:37;2.00;99.90
20680;DHT22;10499;47.494;7.608;2023-03-05T04:16:03;2.00;99.90
20680;DHT22;10499;47.494;7.608;2023-03-05T04:18:28;2.10;99.90
20680;DHT22;10499;47.494;7.608;2023-03-05T04:20:54;2.10;99.90
20680;DHT22;10499;47.494;7.608;2023-03-05T04:23:20;2.10;99.90
20680;DHT22;10499;47.494;7.608;2023-03-05T04:25:46;2.10;99.90
20680;DHT22;10499;47.494;7.608;2023-03-05T04:28:12;2.10;99.90
20680;DHT22;10499;47.494;7.608;2023-03-05T04:30:38;2.00;99.90
20680;DHT22;10499;47.494;7.608;2023-03-05T04:33:03;1.90;99.90
20680;DHT22;10499;47.494;7.608;2023-03-05T04:35:29;1.90;99.90
20680;DHT22;10499;47.494;7.608;2023-03-05T04:37:55;1.80;99.90
20680;DHT22;10499;47.494;7.608;2023-03-05T04:40:20;1.70;99.90
20680;DHT22;10499;47.494;7.608;2023-03-05T04:42:46;1.60;99.90
20680;DHT22;10499;47.494;7.608;2023-03-05T04:45:12;1.50;99.90
20680;DHT22;10499;47.494;7.608;2023-03-05T04:47:38;1.30;99.90
20680;DHT22;10499;47.494;7.608;2023-03-05T04:50:04;1.20;99.90
20680;DHT22;10499;47.494;7.608;2023-03-05T04:52:30;1.10;99.90
20680;DHT22;10499;47.494;7.608;2023-03-05T04:54:56;1.20;99.90
20680;DHT22;10499;47.494;7.608;2023-03-05T04:57:22;1.20;99.90
20680;DHT22;10499;47.494;7.608;2023-03-05T04:59:47;1.20;99.90
20680;DHT22;10499;47.494;7.608;2023-03-05T05:02:13;1.10;99.90
20680;DHT22;10499;47.494;7.608;2023-03-05T05:04:39;1.00;99.90
20680;DHT22;10499;47.494;7.608;2023-03-05T05:07:07;1.00;99.90
20680;DHT22;10499;47.494;7.608;2023-03-05T05:09:33;1.00;99.90
20680;DHT22;10499;47.494;7.608;2023-03-05T05:11:58;0.90;99.90
20680;DHT22;10499;47.494;7.608;2023-03-05T05:14:24;0.80;99.90
20680;DHT22;10499;47.494;7.608;2023-03-05T05:16:50;0.80;99.90
20680;DHT22;10499;47.494;7.608;2023-03-05T05:19:16;0.80;99.90
20680;DHT22;10499;47.494;7.608;2023-03-05T05:21:41;0.80;99.90
20680;DHT22;10499;47.494;7.608;2023-03-05T05:24:07;0.80;99.90
20680;DHT22;10499;47.494;7.608;2023-03-05T05:26:33;0.70;99.90
20680;DHT22;10499;47.494;7.608;2023-03-05T05:28:58;0.50;99.90
20680;DHT22;10499;47.494;7.608;2023-03-05T05:31:24;0.50;99.90
20680;DHT22;10499;47.494;7.608;2023-03-05T05:33:50;0.40;99.90
20680;DHT22;10499;47.494;7.608;2023-03-05T05:36:16;0.30;99.90
20680;DHT22;10499;47.494;7.608;2023-03-05T05:38:44;0.30;99.90
20680;DHT22;10499;47.494;7.608;2023-03-05T05:41:12;0.30;99.90
20680;DHT22;10499;47.494;7.608;2023-03-05T05:43:38;0.20;99.90
20680;DHT22;10499;47.494;7.608;2023-03-05T05:46:07;0.20;99.90
20680;DHT22;10499;47.494;7.608;2023-03-05T05:48:34;0.20;99.90
20680;DHT22;10499;47.494;7.608;2023-03-05T05:51:07;0.20;99.90
20680;DHT22;10499;47.494;7.608;2023-03-05T05:55:59;0.30;99.90
20680;DHT22;10499;47.494;7.608;2023-03-05T05:58:25;0.20;99.90
20680;DHT22;10499;47.494;7.608;2023-03-05T06:00:51;0.00;99.90
20680;DHT22;10499;47.494;7.608;2023-03-05T06:03:16;-0.10;99.90
20680;DHT22;10499;47.494;7.608;2023-03-05T06:05:42;-0.10;99.90
20680;DHT22;10499;47.494;7.608;2023-03-05T06:08:08;-0.20;99.90
20680;DHT22;10499;47.494;7.608;2023-03-05T06:10:34;-0.30;99.90
20680;DHT22;10499;47.494;7.608;2023-03-05T06:13:00;-0.30;99.90
20680;DHT22;10499;47.494;7.608;2023-03-05T06:15:26;-0.20;99.90
20680;DHT22;10499;47.494;7.608;2023-03-05T06:17:51;-0.20;99.90
20680;DHT22;10499;47.494;7.608;2023-03-05T06:20:19;-0.10;99.90
20680;DHT22;10499;47.494;7.608;2023-03-05T06:22:45;-0.10;99.90
20680;DHT22;10499;47.494;7.608;2023-03-05T06:25:11;-0.10;99.90
20680;DHT22;10499;47.494;7.608;2023-03-05T06:27:36;-0.10;99.90
20680;DHT22;10499;47.494;7.608;2023-03-05T06:30:04;-0.10;99.90
20680;DHT22;10499;47.494;7.608;2023-03-05T06:32:30;-0.10;99.90
20680;DHT22;10499;47.494;7.608;2023-03-05T06:34:55;0.00;99.90
20680;DHT22;10499;47.494;7.608;2023-03-05T06:37:21;0.00;99.90
20680;DHT22;10499;47.494;7.608;2023-03-05T06:39:46;0.00;99.90
20680;DHT22;10499;47.494;7.608;2023-03-05T06:42:12;0.10;99.90
20680;DHT22;10499;47.494;7.608;2023-03-05T06:44:39;0.10;99.90
20680;DHT22;10499;47.494;7.608;2023-03-05T06:47:08;0.20;99.90
20680;DHT22;10499;47.494;7.608;2023-03-05T06:49:35;0.30;99.90
20680;DHT22;10499;47.494;7.608;2023-03-05T06:52:02;0.40;99.90
20680;DHT22;10499;47.494;7.608;2023-03-05T06:54:28;0.40;99.90
20680;DHT22;10499;47.494;7.608;2023-03-05T06:56:54;0.50;99.90
20680;DHT22;10499;47.494;7.608;2023-03-05T06:59:19;0.60;99.90
20680;DHT22;10499;47.494;7.608;2023-03-05T07:01:46;0.70;99.90
20680;DHT22;10499;47.494;7.608;2023-03-05T07:04:12;0.70;99.90
20680;DHT22;10499;47.494;7.608;2023-03-05T07:06:39;0.80;99.90
20680;DHT22;10499;47.494;7.608;2023-03-05T07:09:07;0.90;99.90
20680;DHT22;10499;47.494;7.608;2023-03-05T07:11:33;1.10;99.90
20680;DHT22;10499;47.494;7.608;2023-03-05T07:13:59;1.20;99.90
20680;DHT22;10499;47.494;7.608;2023-03-05T07:16:27;1.20;99.90
20680;DHT22;10499;47.494;7.608;2023-03-05T07:18:55;1.10;99.90
20680;DHT22;10499;47.494;7.608;2023-03-05T07:21:24;1.20;99.90
20680;DHT22;10499;47.494;7.608;2023-03-05T07:23:52;1.40;99.90
20680;DHT22;10499;47.494;7.608;2023-03-05T07:26:18;1.50;99.90
20680;DHT22;10499;47.494;7.608;2023-03-05T07:28:44;1.60;99.90
20680;DHT22;10499;47.494;7.608;2023-03-05T07:31:18;1.70;99.90
20680;DHT22;10499;47.494;7.608;2023-03-05T07:33:49;1.80;99.90
20680;DHT22;10499;47.494;7.608;2023-03-05T07:36:15;1.90;99.90
20680;DHT22;10499;47.494;7.608;2023-03-05T07:38:41;2.00;99.90
20680;DHT22;10499;47.494;7.608;2023-03-05T07:41:09;2.10;99.90
20680;DHT22;10499;47.494;7.608;2023-03-05T07:43:35;2.20;99.90
20680;DHT22;10499;47.494;7.608;2023-03-05T07:46:06;2.40;99.90
20680;DHT22;10499;47.494;7.608;2023-03-05T07:48:32;2.60;99.90
20680;DHT22;10499;47.494;7.608;2023-03-05T07:51:02;2.90;99.90
20680;DHT22;10499;47.494;7.608;2023-03-05T07:53:27;3.00;99.90
20680;DHT22;10499;47.494;7.608;2023-03-05T07:55:53;3.30;99.70
20680;DHT22;10499;47.494;7.608;2023-03-05T07:58:19;3.60;97.40
20680;DHT22;10499;47.494;7.608;2023-03-05T08:00:44;3.80;96.40
20680;DHT22;10499;47.494;7.608;2023-03-05T08:03:10;4.20;94.60
20680;DHT22;10499;47.494;7.608;2023-03-05T08:05:38;4.60;92.70
20680;DHT22;10499;47.494;7.608;2023-03-05T08:08:05;5.00;91.10
20680;DHT22;10499;47.494;7.608;2023-03-05T08:10:30;5.60;89.10
20680;DHT22;10499;47.494;7.608;2023-03-05T08:12:56;6.20;85.70
20680;DHT22;10499;47.494;7.608;2023-03-05T08:15:22;7.00;82.50
20680;DHT22;10499;47.494;7.608;2023-03-05T08:17:47;8.20;77.20
20680;DHT22;10499;47.494;7.608;2023-03-05T08:20:13;10.00;69.90
20680;DHT22;10499;47.494;7.608;2023-03-05T08:22:39;11.40;63.60
20680;DHT22;10499;47.494;7.608;2023-03-05T08:25:05;12.70;58.50
20680;DHT22;10499;47.494;7.608;2023-03-05T08:27:31;13.40;55.60
20680;DHT22;10499;47.494;7.608;2023-03-05T08:29:56;14.00;53.90
20680;DHT22;10499;47.494;7.608;2023-03-05T08:32:22;15.00;51.30
20680;DHT22;10499;47.494;7.608;2023-03-05T08:34:48;15.50;49.70
20680;DHT22;10499;47.494;7.608;2023-03-05T08:37:14;17.00;48.10
20680;DHT22;10499;47.494;7.608;2023-03-05T08:39:40;17.00;45.40
20680;DHT22;10499;47.494;7.608;2023-03-05T08:42:05;18.20;42.40
20680;DHT22;10499;47.494;7.608;2023-03-05T08:44:31;18.80;40.50
20680;DHT22;10499;47.494;7.608;2023-03-05T08:46:57;19.00;39.90
20680;DHT22;10499;47.494;7.608;2023-03-05T08:49:22;19.20;40.20
20680;DHT22;10499;47.494;7.608;2023-03-05T08:51:48;19.10;40.20
20680;DHT22;10499;47.494;7.608;2023-03-05T08:54:14;19.50;40.10
20680;DHT22;10499;47.494;7.608;2023-03-05T08:56:40;19.80;38.90
20680;DHT22;10499;47.494;7.608;2023-03-05T08:59:06;19.30;39.00
20680;DHT22;10499;47.494;7.608;2023-03-05T09:01:32;19.80;39.00
20680;DHT22;10499;47.494;7.608;2023-03-05T09:03:58;21.00;37.80
20680;DHT22;10499;47.494;7.608;2023-03-05T09:06:24;21.80;35.70
20680;DHT22;10499;47.494;7.608;2023-03-05T09:08:50;21.70;35.40
20680;DHT22;10499;47.494;7.608;2023-03-05T09:11:16;22.30;33.90
20680;DHT22;10499;47.494;7.608;2023-03-05T09:13:42;23.40;32.60
20680;DHT22;10499;47.494;7.608;2023-03-05T09:16:11;23.50;32.10
20680;DHT22;10499;47.494;7.608;2023-03-05T09:18:37;24.20;31.20
20680;DHT22;10499;47.494;7.608;2023-03-05T09:21:09;23.10;32.80
20680;DHT22;10499;47.494;7.608;2023-03-05T09:23:36;23.00;32.00
20680;DHT22;10499;47.494;7.608;2023-03-05T09:26:04;24.00;30.90
20680;DHT22;10499;47.494;7.608;2023-03-05T09:28:30;25.50;29.40
20680;DHT22;10499;47.494;7.608;2023-03-05T09:30:56;25.60;28.90
20680;DHT22;10499;47.494;7.608;2023-03-05T09:33:21;25.00;29.10
20680;DHT22;10499;47.494;7.608;2023-03-05T09:35:47;25.30;28.90
20680;DHT22;10499;47.494;7.608;2023-03-05T09:38:13;24.90;28.80
20680;DHT22;10499;47.494;7.608;2023-03-05T09:40:58;24.90;28.70
20680;DHT22;10499;47.494;7.608;2023-03-05T09:46:28;26.70;27.50
20680;DHT22;10499;47.494;7.608;2023-03-05T09:49:19;26.30;27.80
20680;DHT22;10499;47.494;7.608;2023-03-05T09:51:45;27.60;26.70
20680;DHT22;10499;47.494;7.608;2023-03-05T09:54:16;27.90;26.40
20680;DHT22;10499;47.494;7.608;2023-03-05T09:56:49;27.70;26.50
20680;DHT22;10499;47.494;7.608;2023-03-05T09:59:47;28.40;26.00
20680;DHT22;10499;47.494;7.608;2023-03-05T10:02:27;28.40;25.80
20680;DHT22;10499;47.494;7.608;2023-03-05T10:05:01;28.40;25.40
20680;DHT22;10499;47.494;7.608;2023-03-05T10:07:35;28.30;25.80
20680;DHT22;10499;47.494;7.608;2023-03-05T10:10:23;27.50;26.30
20680;DHT22;10499;47.494;7.608;2023-03-05T10:12:51;29.10;25.00
20680;DHT22;10499;47.494;7.608;2023-03-05T10:15:40;29.80;24.50
20680;DHT22;10499;47.494;7.608;2023-03-05T10:21:27;30.80;23.60
20680;DHT22;10499;47.494;7.608;2023-03-05T10:27:15;30.90;23.80
20680;DHT22;10499;47.494;7.608;2023-03-05T10:32:45;29.80;24.70
20680;DHT22;10499;47.494;7.608;2023-03-05T10:40:54;31.80;23.00
20680;DHT22;10499;47.494;7.608;2023-03-05T10:46:03;31.20;23.40
20680;DHT22;10499;47.494;7.608;2023-03-05T10:48:37;31.40;22.90
20680;DHT22;10499;47.494;7.608;2023-03-05T10:51:32;31.60;22.90
20680;DHT22;10499;47.494;7.608;2023-03-05T10:54:22;33.00;22.60
20680;DHT22;10499;47.494;7.608;2023-03-05T10:57:00;33.10;21.90
20680;DHT22;10499;47.494;7.608;2023-03-05T10:59:27;32.90;22.20
20680;DHT22;10499;47.494;7.608;2023-03-05T11:02:07;32.00;22.40
20680;DHT22;10499;47.494;7.608;2023-03-05T11:04:37;31.90;22.00
20680;DHT22;10499;47.494;7.608;2023-03-05T11:09:42;33.10;21.90
20680;DHT22;10499;47.494;7.608;2023-03-05T11:12:19;32.90;21.70
20680;DHT22;10499;47.494;7.608;2023-03-05T11:17:46;33.60;20.90
20680;DHT22;10499;47.494;7.608;2023-03-05T11:26:22;31.70;22.30
20680;DHT22;10499;47.494;7.608;2023-03-05T11:36:34;27.80;24.30
20680;DHT22;10499;47.494;7.608;2023-03-05T11:41:48;30.40;23.60
20680;DHT22;10499;47.494;7.608;2023-03-05T11:44:25;30.60;22.70
20680;DHT22;10499;47.494;7.608;2023-03-05T11:47:24;28.70;23.50
20680;DHT22;10499;47.494;7.608;2023-03-05T11:49:54;28.50;24.30
20680;DHT22;10499;47.494;7.608;2023-03-05T11:52:40;28.80;24.00
20680;DHT22;10499;47.494;7.608;2023-03-05T11:55:15;29.00;23.70
20680;DHT22;10499;47.494;7.608;2023-03-05T11:57:54;30.00;22.80
20680;DHT22;10499;47.494;7.608;2023-03-05T12:00:27;29.20;23.50
20680;DHT22;10499;47.494;7.608;2023-03-05T12:02:54;27.50;24.30
20680;DHT22;10499;47.494;7.608;2023-03-05T12:05:21;27.60;24.60
20680;DHT22;10499;47.494;7.608;2023-03-05T12:07:50;26.90;25.20
20680;DHT22;10499;47.494;7.608;2023-03-05T12:10:20;24.70;27.30
20680;DHT22;10499;47.494;7.608;2023-03-05T12:18:57;20.90;31.70
20680;DHT22;10499;47.494;7.608;2023-03-05T12:21:54;19.60;33.50
20680;DHT22;10499;47.494;7.608;2023-03-05T12:26:53;18.40;36.70
20680;DHT22;10499;47.494;7.608;2023-03-05T12:29:48;21.00;32.60
20680;DHT22;10499;47.494;7.608;2023-03-05T12:40:25;25.00;27.50
20680;DHT22;10499;47.494;7.608;2023-03-05T12:43:00;23.90;28.20
20680;DHT22;10499;47.494;7.608;2023-03-05T12:45:30;23.90;28.60
20680;DHT22;10499;47.494;7.608;2023-03-05T12:55:36;25.10;28.10
20680;DHT22;10499;47.494;7.608;2023-03-05T12:58:11;25.80;27.30
20680;DHT22;10499;47.494;7.608;2023-03-05T13:00:47;26.00;27.10
20680;DHT22;10499;47.494;7.608;2023-03-05T13:03:22;26.00;26.70
20680;DHT22;10499;47.494;7.608;2023-03-05T13:05:56;25.30;26.90
20680;DHT22;10499;47.494;7.608;2023-03-05T13:08:27;25.00;27.00
20680;DHT22;10499;47.494;7.608;2023-03-05T13:11:05;25.50;26.70
20680;DHT22;10499;47.494;7.608;2023-03-05T13:13:35;24.80;26.40
20680;DHT22;10499;47.494;7.608;2023-03-05T13:16:02;25.10;26.60
20680;DHT22;10499;47.494;7.608;2023-03-05T13:18:32;24.80;27.50
20680;DHT22;10499;47.494;7.608;2023-03-05T13:21:05;24.00;28.50
20680;DHT22;10499;47.494;7.608;2023-03-05T13:23:32;24.60;28.00
20680;DHT22;10499;47.494;7.608;2023-03-05T13:26:15;24.40;28.20
20680;DHT22;10499;47.494;7.608;2023-03-05T13:28:44;23.70;28.00
20680;DHT22;10499;47.494;7.608;2023-03-05T13:31:17;22.20;29.70
20680;DHT22;10499;47.494;7.608;2023-03-05T13:33:58;20.80;32.50
20680;DHT22;10499;47.494;7.608;2023-03-05T13:36:30;19.00;35.10
20680;DHT22;10499;47.494;7.608;2023-03-05T13:38:56;18.00;37.20
20680;DHT22;10499;47.494;7.608;2023-03-05T13:41:24;18.00;38.50
20680;DHT22;10499;47.494;7.608;2023-03-05T13:43:56;18.50;37.10
20680;DHT22;10499;47.494;7.608;2023-03-05T13:46:33;18.70;36.80
20680;DHT22;10499;47.494;7.608;2023-03-05T13:49:20;19.90;34.70
20680;DHT22;10499;47.494;7.608;2023-03-05T13:51:53;20.20;33.20
20680;DHT22;10499;47.494;7.608;2023-03-05T13:54:20;20.30;33.50
20680;DHT22;10499;47.494;7.608;2023-03-05T13:56:58;19.80;34.30
20680;DHT22;10499;47.494;7.608;2023-03-05T13:59:27;19.30;35.20
20680;DHT22;10499;47.494;7.608;2023-03-05T14:04:57;17.50;38.20
20680;DHT22;10499;47.494;7.608;2023-03-05T14:07:37;17.10;38.80
20680;DHT22;10499;47.494;7.608;2023-03-05T14:10:37;16.30;40.70
20680;DHT22;10499;47.494;7.608;2023-03-05T14:13:20;15.90;41.70
20680;DHT22;10499;47.494;7.608;2023-03-05T14:18:33;15.70;42.90
20680;DHT22;10499;47.494;7.608;2023-03-05T14:21:06;15.50;42.90
20680;DHT22;10499;47.494;7.608;2023-03-05T14:23:46;15.60;42.10
20680;DHT22;10499;47.494;7.608;2023-03-05T14:26:31;15.30;42.50
20680;DHT22;10499;47.494;7.608;2023-03-05T14:29:14;15.10;43.10
20680;DHT22;10499;47.494;7.608;2023-03-05T14:32:06;14.60;43.30
20680;DHT22;10499;47.494;7.608;2023-03-05T14:34:38;14.90;43.50
20680;DHT22;10499;47.494;7.608;2023-03-05T14:39:59;15.60;42.10
20680;DHT22;10499;47.494;7.608;2023-03-05T14:42:34;15.10;42.00
20680;DHT22;10499;47.494;7.608;2023-03-05T14:45:27;15.00;42.60
20680;DHT22;10499;47.494;7.608;2023-03-05T14:47:55;15.30;42.00
20680;DHT22;10499;47.494;7.608;2023-03-05T14:53:06;15.90;41.30
20680;DHT22;10499;47.494;7.608;2023-03-05T14:55:34;15.60;41.60
20680;DHT22;10499;47.494;7.608;2023-03-05T14:58:14;15.40;42.10
20680;DHT22;10499;47.494;7.608;2023-03-05T15:00:51;14.30;43.70
20680;DHT22;10499;47.494;7.608;2023-03-05T15:03:19;14.30;44.60
20680;DHT22;10499;47.494;7.608;2023-03-05T15:05:47;14.40;44.40
20680;DHT22;10499;47.494;7.608;2023-03-05T15:08:20;14.10;44.30
20680;DHT22;10499;47.494;7.608;2023-03-05T15:10:47;14.00;44.60
20680;DHT22;10499;47.494;7.608;2023-03-05T15:13:16;13.80;45.00
20680;DHT22;10499;47.494;7.608;2023-03-05T15:15:44;13.70;45.10
20680;DHT22;10499;47.494;7.608;2023-03-05T15:18:15;13.50;45.60
20680;DHT22;10499;47.494;7.608;2023-03-05T15:20:44;13.50;45.40
20680;DHT22;10499;47.494;7.608;2023-03-05T15:23:16;13.40;45.50
20680;DHT22;10499;47.494;7.608;2023-03-05T15:25:44;13.10;45.60
20680;DHT22;10499;47.494;7.608;2023-03-05T15:28:10;13.10;45.40
20680;DHT22;10499;47.494;7.608;2023-03-05T15:30:39;13.30;45.60
20680;DHT22;10499;47.494;7.608;2023-03-05T15:33:07;13.30;45.40
20680;DHT22;10499;47.494;7.608;2023-03-05T15:35:33;13.30;45.50
20680;DHT22;10499;47.494;7.608;2023-03-05T15:37:59;13.30;44.80
20680;DHT22;10499;47.494;7.608;2023-03-05T15:40:26;13.00;45.00
20680;DHT22;10499;47.494;7.608;2023-03-05T15:42:55;12.80;45.60
20680;DHT22;10499;47.494;7.608;2023-03-05T15:45:22;12.80;45.90
20680;DHT22;10499;47.494;7.608;2023-03-05T15:47:49;12.20;46.30
20680;DHT22;10499;47.494;7.608;2023-03-05T15:50:16;12.30;46.70
20680;DHT22;10499;47.494;7.608;2023-03-05T15:52:45;12.20;46.70
20680;DHT22;10499;47.494;7.608;2023-03-05T15:55:11;12.20;46.60
20680;DHT22;10499;47.494;7.608;2023-03-05T15:57:41;12.10;47.20
20680;DHT22;10499;47.494;7.608;2023-03-05T16:00:09;11.90;47.60
20680;DHT22;10499;47.494;7.608;2023-03-05T16:02:35;11.80;47.80
20680;DHT22;10499;47.494;7.608;2023-03-05T16:05:00;11.70;47.90
20680;DHT22;10499;47.494;7.608;2023-03-05T16:07:26;11.80;48.10
20680;DHT22;10499;47.494;7.608;2023-03-05T16:09:53;11.90;47.50
20680;DHT22;10499;47.494;7.608;2023-03-05T16:12:22;11.80;47.80
20680;DHT22;10499;47.494;7.608;2023-03-05T16:14:49;11.30;48.30
20680;DHT22;10499;47.494;7.608;2023-03-05T16:17:19;11.30;48.80
20680;DHT22;10499;47.494;7.608;2023-03-05T16:19:49;11.40;48.60
20680;DHT22;10499;47.494;7.608;2023-03-05T16:22:16;11.20;49.20
20680;DHT22;10499;47.494;7.608;2023-03-05T16:24:41;11.10;49.20
20680;DHT22;10499;47.494;7.608;2023-03-05T16:27:07;10.90;50.00
20680;DHT22;10499;47.494;7.608;2023-03-05T16:29:32;10.80;50.70
20680;DHT22;10499;47.494;7.608;2023-03-05T16:32:00;10.90;50.70
20680;DHT22;10499;47.494;7.608;2023-03-05T16:34:26;10.90;50.70
20680;DHT22;10499;47.494;7.608;2023-03-05T16:36:52;10.80;51.00
20680;DHT22;10499;47.494;7.608;2023-03-05T16:39:21;10.60;51.40
20680;DHT22;10499;47.494;7.608;2023-03-05T16:41:48;10.40;52.00
20680;DHT22;10499;47.494;7.608;2023-03-05T16:44:14;10.40;52.30
20680;DHT22;10499;47.494;7.608;2023-03-05T16:46:40;10.30;52.50
20680;DHT22;10499;47.494;7.608;2023-03-05T16:49:08;10.20;51.90
20680;DHT22;10499;47.494;7.608;2023-03-05T16:51:34;10.00;52.50
20680;DHT22;10499;47.494;7.608;2023-03-05T16:54:00;9.90;52.60
20680;DHT22;10499;47.494;7.608;2023-03-05T16:56:25;10.00;52.70
20680;DHT22;10499;47.494;7.608;2023-03-05T16:58:54;10.00;53.00
20680;DHT22;10499;47.494;7.608;2023-03-05T17:01:20;9.80;53.10
20680;DHT22;10499;47.494;7.608;2023-03-05T17:03:46;9.80;53.50
20680;DHT22;10499;47.494;7.608;2023-03-05T17:06:15;9.70;53.60
20680;DHT22;10499;47.494;7.608;2023-03-05T17:08:42;9.70;53.40
20680;DHT22;10499;47.494;7.608;2023-03-05T17:11:08;9.70;53.40
20680;DHT22;10499;47.494;7.608;2023-03-05T17:13:34;9.70;53.40
20680;DHT22;10499;47.494;7.608;2023-03-05T17:16:00;9.70;53.40
20680;DHT22;10499;47.494;7.608;2023-03-05T17:18:26;9.60;53.60
20680;DHT22;10499;47.494;7.608;2023-03-05T17:20:52;9.30;54.20